createdAt,value
2023-03-31T00:00:46.938Z,94.96
2023-03-31T00:03:21.734Z,95.57
2023-03-31T00:05:48.749Z,96.01
2023-03-31T00:08:15.378Z,96.11
2023-03-31T00:10:46.632Z,94.92
2023-03-31T00:13:13.467Z,94.48
2023-03-31T00:15:40.398Z,93.94
2023-03-31T00:18:07.184Z,93.60
2023-03-31T00:20:37.965Z,93.18
2023-03-31T00:23:10.809Z,93.17
2023-03-31T00:25:41.643Z,93.74
2023-03-31T00:28:08.283Z,93.30
2023-03-31T00:30:34.977Z,93.24
2023-03-31T00:33:01.752Z,92.65
2023-03-31T00:35:28.437Z,92.61
2023-03-31T00:37:58.039Z,92.58
2023-03-31T00:40:24.791Z,91.53
2023-03-31T00:42:51.899Z,92.40
2023-03-31T00:45:27.247Z,91.72
2023-03-31T00:48:13.506Z,91.13
2023-03-31T00:50:54.170Z,91.54
2023-03-31T00:53:26.242Z,90.52
2023-03-31T00:55:56.265Z,91.78
2023-03-31T00:58:28.323Z,90.64
2023-03-31T01:00:58.392Z,90.40
2023-03-31T01:03:25.256Z,90.13
2023-03-31T01:06:05.201Z,90.02
2023-03-31T01:08:33.315Z,89.63
2023-03-31T01:11:03.205Z,89.33
2023-03-31T01:13:31.831Z,89.68
2023-03-31T01:15:58.516Z,89.66
2023-03-31T01:18:25.765Z,89.67
2023-03-31T01:21:39.611Z,90.20
2023-03-31T01:24:47.222Z,90.97
2023-03-31T01:27:46.720Z,90.61
2023-03-31T01:30:51.859Z,88.51
2023-03-31T01:33:47.874Z,88.63
2023-03-31T01:36:56.054Z,88.71
2023-03-31T01:40:01.656Z,89.59
2023-03-31T01:43:02.227Z,89.75
2023-03-31T01:45:56.637Z,90.23
2023-03-31T01:48:54.727Z,89.52
2023-03-31T01:51:35.706Z,89.52
2023-03-31T01:54:23.523Z,89.22
2023-03-31T01:56:58.121Z,89.03
2023-03-31T01:59:37.978Z,88.62
2023-03-31T02:02:13.903Z,89.96
2023-03-31T02:04:46.715Z,88.67
2023-03-31T02:07:19.000Z,88.03
2023-03-31T02:09:50.728Z,88.63
2023-03-31T02:12:21.377Z,89.34
2023-03-31T02:14:50.504Z,90.35
2023-03-31T02:17:20.188Z,88.73
2023-03-31T02:19:53.002Z,88.65
2023-03-31T02:22:21.392Z,88.91
2023-03-31T02:24:51.448Z,88.48
2023-03-31T02:27:31.282Z,88.23
2023-03-31T02:29:58.717Z,88.89
2023-03-31T02:32:41.320Z,89.59
2023-03-31T02:35:15.354Z,89.26
2023-03-31T02:37:43.401Z,89.45
2023-03-31T02:40:19.144Z,88.17
2023-03-31T02:42:46.051Z,90.09
2023-03-31T02:45:44.729Z,92.29
2023-03-31T02:48:34.943Z,93.60
2023-03-31T02:51:38.576Z,94.84
2023-03-31T02:55:05.748Z,95.00
2023-03-31T02:57:59.925Z,95.46
2023-03-31T03:01:08.178Z,95.33
2023-03-31T03:04:21.239Z,96.45
2023-03-31T03:07:10.053Z,97.42
2023-03-31T03:09:55.930Z,97.40
2023-03-31T03:12:40.971Z,96.81
2023-03-31T03:15:32.890Z,97.30
2023-03-31T03:18:00.137Z,97.60
2023-03-31T03:20:26.973Z,97.83
2023-03-31T03:22:53.589Z,97.92
2023-03-31T03:25:24.422Z,96.93
2023-03-31T03:27:53.047Z,96.84
2023-03-31T03:30:19.762Z,97.12
2023-03-31T03:32:46.553Z,97.27
2023-03-31T03:35:13.320Z,96.74
2023-03-31T03:37:39.957Z,96.88
2023-03-31T03:40:07.256Z,96.22
2023-03-31T03:42:35.295Z,96.34
2023-03-31T03:45:02.020Z,96.37
2023-03-31T03:47:29.318Z,96.71
2023-03-31T03:49:56.455Z,96.67
2023-03-31T03:52:23.117Z,96.68
2023-03-31T03:54:49.756Z,96.83
2023-03-31T03:57:16.740Z,97.17
2023-03-31T03:59:43.541Z,97.79
2023-03-31T04:02:10.359Z,97.53
2023-03-31T04:04:37.066Z,98.24
2023-03-31T04:07:03.978Z,98.37
2023-03-31T04:09:30.631Z,97.20
2023-03-31T04:11:57.260Z,97.91
2023-03-31T04:14:25.354Z,98.28
2023-03-31T04:16:52.068Z,98.85
2023-03-31T04:19:18.821Z,98.17
2023-03-31T04:21:45.681Z,98.47
2023-03-31T04:24:16.106Z,98.27
2023-03-31T04:26:43.319Z,97.16
2023-03-31T04:29:16.244Z,99.92
2023-03-31T04:31:43.669Z,99.18
2023-03-31T04:34:15.648Z,99.88
2023-03-31T04:36:48.016Z,99.31
2023-03-31T04:39:16.795Z,99.03
2023-03-31T04:41:43.895Z,99.95
2023-03-31T04:44:10.866Z,100.00
2023-03-31T04:46:37.665Z,100.00
2023-03-31T04:49:05.744Z,100.00
2023-03-31T04:51:32.483Z,100.00
2023-03-31T04:53:59.116Z,100.00
2023-03-31T04:56:26.714Z,100.00
2023-03-31T04:58:53.698Z,99.84
2023-03-31T05:01:20.580Z,100.00
2023-03-31T05:03:48.174Z,100.00
2023-03-31T05:06:18.160Z,100.00
2023-03-31T05:08:45.388Z,100.00
2023-03-31T05:11:12.088Z,100.00
2023-03-31T05:13:38.709Z,100.00
2023-03-31T05:16:10.884Z,100.00
2023-03-31T05:18:37.970Z,100.00
2023-03-31T05:21:19.312Z,100.00
2023-03-31T05:23:46.353Z,100.00
2023-03-31T05:26:13.826Z,100.00
2023-03-31T05:28:41.413Z,100.00
2023-03-31T05:31:09.430Z,99.80
2023-03-31T05:33:40.261Z,100.00
2023-03-31T05:36:10.098Z,99.24
2023-03-31T05:38:37.265Z,99.38
2023-03-31T05:41:03.977Z,99.06
2023-03-31T05:43:30.630Z,98.61
2023-03-31T05:45:57.358Z,98.38
2023-03-31T05:48:24.121Z,97.95
2023-03-31T05:50:50.870Z,97.40
2023-03-31T05:53:17.504Z,95.89
2023-03-31T05:55:44.047Z,95.74
2023-03-31T05:58:10.798Z,95.44
2023-03-31T06:00:37.927Z,96.55
2023-03-31T06:03:04.783Z,95.54
2023-03-31T06:05:32.392Z,95.64
2023-03-31T06:07:59.017Z,93.86
2023-03-31T06:10:25.795Z,93.91
2023-03-31T06:12:52.393Z,93.74
2023-03-31T06:15:19.036Z,94.97
2023-03-31T06:17:45.702Z,95.05
2023-03-31T06:20:26.616Z,94.77
2023-03-31T06:22:54.226Z,94.21
2023-03-31T06:25:21.749Z,93.36
2023-03-31T06:27:48.511Z,92.29
2023-03-31T06:30:15.262Z,91.88
2023-03-31T06:32:41.943Z,91.45
2023-03-31T06:35:09.097Z,92.71
2023-03-31T06:37:35.919Z,92.33
2023-03-31T06:40:02.923Z,92.00
2023-03-31T06:42:29.656Z,94.08
2023-03-31T06:44:56.247Z,94.57
2023-03-31T06:47:22.930Z,94.25
2023-03-31T06:49:49.734Z,94.64
2023-03-31T06:52:16.495Z,94.25
2023-03-31T06:54:43.286Z,93.91
2023-03-31T06:57:10.041Z,93.83
2023-03-31T06:59:36.830Z,93.71
2023-03-31T07:02:03.800Z,94.20
2023-03-31T07:04:30.510Z,92.40
2023-03-31T07:06:59.505Z,92.15
2023-03-31T07:09:26.070Z,92.53
2023-03-31T07:11:53.104Z,92.82
2023-03-31T07:14:23.249Z,92.77
2023-03-31T07:16:50.854Z,93.15
2023-03-31T07:19:18.081Z,92.34
2023-03-31T07:21:45.051Z,93.17
2023-03-31T07:24:11.676Z,94.15
2023-03-31T07:26:38.354Z,94.08
2023-03-31T07:29:04.980Z,93.52
2023-03-31T07:31:31.680Z,94.63
2023-03-31T07:33:58.459Z,94.61
2023-03-31T07:36:25.233Z,94.36
2023-03-31T07:38:51.900Z,93.66
2023-03-31T07:41:20.855Z,93.15
2023-03-31T07:43:48.590Z,93.33
2023-03-31T07:46:21.526Z,92.40
2023-03-31T07:48:49.154Z,92.44
2023-03-31T07:51:18.793Z,92.98
2023-03-31T07:53:46.424Z,92.82
2023-03-31T07:56:13.289Z,91.01
2023-03-31T07:58:40.018Z,92.38
2023-03-31T08:01:08.264Z,92.62
2023-03-31T08:03:35.149Z,92.94
2023-03-31T08:06:01.985Z,93.80
2023-03-31T08:08:28.679Z,94.41
2023-03-31T08:10:55.420Z,94.79
2023-03-31T08:13:22.069Z,93.41
2023-03-31T08:15:48.714Z,93.41
2023-03-31T08:18:15.990Z,92.21
2023-03-31T08:20:42.641Z,92.31
2023-03-31T08:23:11.507Z,92.49
2023-03-31T08:25:38.690Z,92.80
2023-03-31T08:28:06.833Z,92.98
2023-03-31T08:30:33.537Z,92.31
2023-03-31T08:33:00.162Z,92.55
2023-03-31T08:35:26.865Z,91.23
2023-03-31T08:37:53.452Z,91.31
2023-03-31T08:40:24.257Z,89.76
2023-03-31T08:42:54.819Z,90.60
2023-03-31T08:45:29.943Z,89.85
2023-03-31T08:48:07.535Z,89.54
2023-03-31T08:50:43.440Z,89.19
2023-03-31T08:53:28.917Z,89.56
2023-03-31T08:55:57.941Z,89.46
2023-03-31T08:58:34.618Z,91.91
2023-03-31T09:01:55.305Z,91.33
2023-03-31T09:04:53.276Z,91.42
2023-03-31T09:07:39.175Z,91.64
2023-03-31T09:10:46.748Z,92.25
2023-03-31T09:13:51.621Z,91.41
2023-03-31T09:16:26.664Z,90.50
2023-03-31T09:18:59.648Z,89.87
2023-03-31T09:21:31.867Z,90.61
2023-03-31T09:24:28.989Z,89.95
2023-03-31T09:27:08.511Z,90.58
2023-03-31T09:29:49.096Z,91.41
2023-03-31T09:32:20.291Z,89.94
2023-03-31T09:34:51.257Z,86.59
2023-03-31T09:37:17.960Z,88.44
2023-03-31T09:39:44.749Z,88.27
2023-03-31T09:42:13.920Z,89.53
2023-03-31T09:44:44.595Z,89.72
2023-03-31T09:47:19.571Z,90.41
2023-03-31T09:49:53.616Z,92.16
2023-03-31T09:52:33.303Z,93.67
2023-03-31T09:55:02.495Z,92.95
2023-03-31T09:57:35.017Z,93.72
2023-03-31T10:00:13.580Z,92.27
2023-03-31T10:03:07.748Z,91.45
2023-03-31T10:05:42.822Z,90.76
2023-03-31T10:09:01.594Z,89.62
2023-03-31T10:11:29.876Z,89.32
2023-03-31T10:14:15.660Z,88.90
2023-03-31T10:16:53.415Z,88.67
2023-03-31T10:19:29.343Z,88.87
2023-03-31T10:22:20.033Z,88.83
2023-03-31T10:24:47.492Z,86.95
2023-03-31T10:27:28.900Z,85.01
2023-03-31T10:30:01.865Z,85.92
2023-03-31T10:32:41.698Z,84.74
2023-03-31T10:35:23.047Z,82.28
2023-03-31T10:37:54.466Z,81.65
2023-03-31T10:40:24.911Z,82.14
2023-03-31T10:43:02.016Z,80.90
2023-03-31T10:45:38.010Z,81.39
2023-03-31T10:48:16.896Z,80.36
2023-03-31T10:50:43.970Z,81.74
2023-03-31T10:53:14.012Z,79.90
2023-03-31T10:56:17.799Z,80.42
2023-03-31T10:59:05.850Z,81.21
2023-03-31T11:01:55.032Z,79.97
2023-03-31T11:04:56.039Z,80.58
2023-03-31T11:08:20.342Z,80.41
2023-03-31T11:11:17.437Z,79.96
2023-03-31T11:14:15.822Z,80.00
2023-03-31T11:17:11.351Z,81.59
2023-03-31T11:20:29.649Z,80.83
2023-03-31T11:23:36.857Z,80.08
2023-03-31T11:26:18.755Z,79.71
2023-03-31T11:29:22.907Z,78.81
2023-03-31T11:32:45.941Z,79.16
2023-03-31T11:35:57.108Z,79.43
2023-03-31T11:38:42.421Z,78.92
2023-03-31T11:41:14.952Z,79.57
2023-03-31T11:43:51.052Z,80.87
2023-03-31T11:46:23.083Z,80.89
2023-03-31T11:49:15.095Z,78.98
2023-03-31T11:51:59.521Z,78.83
2023-03-31T11:54:47.748Z,80.17
2023-03-31T11:57:23.962Z,79.34
2023-03-31T11:59:57.349Z,78.17
2023-03-31T12:02:36.738Z,77.63
2023-03-31T12:05:05.748Z,77.98
2023-03-31T12:07:39.888Z,78.20
2023-03-31T12:10:21.192Z,74.44
2023-03-31T12:13:27.832Z,75.59
2023-03-31T12:16:17.267Z,74.64
2023-03-31T12:19:28.030Z,74.00
2023-03-31T12:22:02.603Z,74.79
2023-03-31T12:24:31.116Z,74.74
2023-03-31T12:27:16.089Z,74.81
2023-03-31T12:29:51.500Z,75.54
2023-03-31T12:32:22.457Z,74.33
2023-03-31T12:34:58.527Z,74.73
2023-03-31T12:38:08.432Z,73.93
2023-03-31T12:41:12.087Z,74.77
2023-03-31T12:44:17.301Z,74.95
2023-03-31T12:59:46.198Z,72.33
2023-03-31T13:02:23.723Z,75.28
2023-03-31T13:04:50.988Z,72.89
2023-03-31T13:07:39.496Z,71.66
2023-03-31T13:22:32.694Z,75.57
2023-03-31T13:25:47.269Z,78.47
2023-03-31T13:28:38.402Z,78.47
2023-03-31T13:31:13.108Z,81.08
2023-03-31T13:34:01.503Z,81.04
2023-03-31T13:36:43.949Z,81.97
2023-03-31T13:39:36.451Z,82.77
2023-03-31T13:42:37.618Z,81.59
2023-03-31T13:45:53.084Z,86.22
2023-03-31T14:27:06.008Z,84.47
2023-03-31T14:29:45.836Z,83.40
2023-03-31T14:32:45.971Z,82.38
2023-03-31T14:35:33.759Z,80.92
2023-03-31T14:38:03.811Z,80.36
2023-03-31T14:40:30.732Z,80.56
2023-03-31T14:42:57.375Z,80.46
2023-03-31T14:45:26.616Z,80.91
2023-03-31T14:47:58.712Z,78.32
2023-03-31T14:50:35.080Z,79.10
2023-03-31T14:53:02.399Z,78.15
2023-03-31T14:55:54.340Z,76.20
2023-03-31T14:58:36.809Z,77.64
2023-03-31T15:01:07.044Z,78.61
2023-03-31T15:03:49.314Z,77.14
2023-03-31T15:06:16.460Z,76.25
2023-03-31T15:08:43.314Z,74.05
2023-03-31T15:11:19.160Z,74.67
2023-03-31T15:14:03.510Z,75.03
2023-03-31T15:16:46.205Z,72.75
2023-03-31T15:19:35.223Z,72.31
2023-03-31T15:22:24.040Z,73.45
2023-03-31T15:24:51.166Z,72.35
2023-03-31T15:27:39.284Z,71.24
2023-03-31T15:30:08.751Z,71.09
2023-03-31T15:32:37.755Z,71.38
2023-03-31T15:37:43.943Z,70.39
2023-03-31T15:40:32.832Z,70.38
2023-03-31T15:45:59.232Z,70.70
2023-03-31T15:48:29.989Z,69.49
2023-03-31T15:51:27.432Z,69.49
2023-03-31T15:53:54.990Z,68.92
2023-03-31T15:56:44.468Z,69.98
2023-03-31T16:02:23.453Z,68.46
2023-03-31T16:04:54.390Z,69.22
2023-03-31T16:07:24.794Z,68.14
2023-03-31T16:10:06.323Z,69.15
2023-03-31T16:12:50.042Z,68.90
2023-03-31T16:13:34.486Z,68.03
2023-03-31T16:15:23.709Z,69.18
2023-03-31T16:17:57.845Z,69.93
2023-03-31T16:20:31.716Z,69.28
2023-03-31T16:22:59.802Z,69.83
2023-03-31T16:25:29.465Z,69.94
2023-03-31T16:28:01.271Z,70.31
2023-03-31T16:30:40.345Z,70.43
2023-03-31T16:33:08.645Z,71.13
2023-03-31T16:35:43.335Z,71.26
2023-03-31T16:38:12.183Z,71.76
2023-03-31T16:40:41.391Z,72.49
2023-03-31T16:43:12.059Z,71.69
2023-03-31T16:45:39.212Z,71.54
2023-03-31T16:48:15.641Z,72.48
2023-03-31T16:50:45.449Z,72.17
2023-03-31T16:53:16.641Z,71.26
2023-03-31T16:55:43.331Z,71.66
2023-03-31T16:58:10.543Z,71.91
2023-03-31T17:00:40.056Z,71.37
2023-03-31T17:03:08.174Z,72.10
2023-03-31T17:05:43.212Z,71.19
2023-03-31T17:08:11.265Z,71.55
2023-03-31T17:10:38.871Z,71.28
2023-03-31T17:13:06.395Z,71.73
2023-03-31T17:15:35.105Z,71.81
2023-03-31T17:18:03.534Z,71.72
2023-03-31T17:20:31.461Z,71.83
2023-03-31T17:22:58.668Z,73.66
2023-03-31T17:25:25.602Z,73.76
2023-03-31T17:27:58.295Z,72.93
2023-03-31T17:30:24.925Z,71.52
2023-03-31T17:32:52.338Z,71.92
2023-03-31T17:35:22.644Z,72.13
2023-03-31T17:37:56.003Z,73.28
2023-03-31T17:40:25.212Z,73.41
2023-03-31T17:42:54.200Z,73.60
2023-03-31T17:45:20.822Z,74.41
2023-03-31T17:47:47.557Z,73.53
2023-03-31T17:50:14.184Z,73.29
2023-03-31T17:52:41.025Z,73.00
2023-03-31T17:55:08.000Z,73.56
2023-03-31T17:57:37.000Z,73.27
2023-03-31T18:00:06.033Z,73.28
2023-03-31T18:02:32.796Z,71.32
2023-03-31T18:04:59.484Z,71.23
2023-03-31T18:07:26.165Z,71.81
2023-03-31T18:09:53.274Z,72.03
2023-03-31T18:12:19.951Z,72.73
2023-03-31T18:14:46.789Z,72.46
2023-03-31T18:17:14.973Z,73.24
2023-03-31T18:19:42.873Z,73.21
2023-03-31T18:22:10.263Z,73.97
2023-03-31T18:24:38.412Z,73.10
2023-03-31T18:27:05.742Z,74.49
2023-03-31T18:29:32.477Z,72.87
2023-03-31T18:31:59.296Z,72.84
2023-03-31T18:34:26.668Z,72.85
2023-03-31T18:36:53.585Z,73.19
2023-03-31T18:39:20.733Z,73.29
2023-03-31T18:41:49.075Z,75.17
2023-03-31T18:44:18.782Z,73.41
2023-03-31T18:46:45.814Z,73.53
2023-03-31T18:49:13.616Z,74.77
2023-03-31T18:51:40.454Z,74.81
2023-03-31T18:54:07.285Z,74.57
2023-03-31T18:56:33.908Z,74.13
2023-03-31T18:59:01.505Z,75.26
2023-03-31T19:01:29.217Z,74.27
2023-03-31T19:03:55.986Z,72.14
2023-03-31T19:06:22.735Z,72.25
2023-03-31T19:08:49.485Z,72.16
2023-03-31T19:11:17.172Z,71.14
2023-03-31T19:13:44.619Z,70.23
2023-03-31T19:16:12.982Z,71.26
2023-03-31T19:18:39.685Z,70.43
2023-03-31T19:21:06.527Z,70.41
2023-03-31T19:23:34.145Z,69.49
2023-03-31T19:26:02.561Z,70.29
2023-03-31T19:28:30.438Z,70.64
2023-03-31T19:30:58.293Z,69.84
2023-03-31T19:33:26.050Z,69.99
2023-03-31T19:35:53.352Z,69.96
2023-03-31T19:38:21.819Z,70.28
2023-03-31T19:40:49.087Z,70.10
2023-03-31T19:43:21.523Z,70.19
2023-03-31T19:45:49.311Z,70.52
2023-03-31T19:48:16.631Z,70.79
2023-03-31T19:51:04.370Z,71.08
2023-03-31T19:53:31.606Z,70.95
2023-03-31T19:56:10.518Z,71.25
2023-03-31T19:58:37.960Z,72.35
2023-03-31T20:01:14.007Z,73.12
2023-03-31T20:03:40.999Z,76.74
2023-03-31T20:06:15.401Z,82.66
2023-03-31T20:08:43.055Z,84.20
2023-03-31T20:11:12.596Z,85.18
2023-03-31T20:13:41.056Z,88.30
2023-03-31T20:16:09.227Z,87.30
2023-03-31T20:18:37.592Z,86.90
2023-03-31T20:21:06.540Z,86.66
2023-03-31T20:23:34.158Z,87.45
2023-03-31T20:26:01.299Z,87.76
2023-03-31T20:28:29.186Z,88.15
2023-03-31T20:30:56.334Z,88.56
2023-03-31T20:33:23.989Z,87.58
2023-03-31T20:36:04.527Z,87.63
2023-03-31T20:38:31.225Z,87.13
2023-03-31T20:40:57.901Z,87.18
2023-03-31T20:43:25.209Z,86.89
2023-03-31T20:46:04.321Z,86.24
2023-03-31T20:48:33.780Z,86.31
2023-03-31T20:51:00.420Z,86.06
2023-03-31T20:53:27.253Z,86.61
2023-03-31T20:55:54.323Z,85.16
2023-03-31T20:58:21.754Z,84.97
2023-03-31T21:00:48.839Z,84.59
2023-03-31T21:03:15.791Z,83.43
2023-03-31T21:05:45.037Z,83.92
2023-03-31T21:08:12.605Z,83.67
2023-03-31T21:10:43.624Z,84.04
2023-03-31T21:13:15.543Z,82.88
2023-03-31T21:15:47.652Z,81.73
2023-03-31T21:18:16.773Z,82.44
2023-03-31T21:20:54.798Z,81.99
2023-03-31T21:23:22.348Z,79.10
2023-03-31T21:25:50.544Z,79.70
2023-03-31T21:28:19.843Z,79.60
2023-03-31T21:31:00.244Z,78.13
2023-03-31T21:33:27.996Z,76.88
2023-03-31T21:35:57.006Z,78.09
2023-03-31T21:38:24.135Z,77.68
2023-03-31T21:40:55.663Z,77.06
2023-03-31T21:43:23.630Z,76.80
2023-03-31T21:45:53.320Z,76.76
2023-03-31T21:48:25.139Z,75.37
2023-03-31T21:50:54.815Z,76.28
2023-03-31T21:53:23.030Z,76.16
2023-03-31T21:55:55.394Z,74.90
2023-03-31T21:58:28.581Z,76.09
2023-03-31T22:01:00.480Z,75.85
2023-03-31T22:03:28.994Z,76.14
2023-03-31T22:05:56.914Z,75.88
2023-03-31T22:08:24.193Z,74.89
2023-03-31T22:10:52.030Z,75.39
2023-03-31T22:13:19.988Z,75.56
2023-03-31T22:15:46.670Z,75.26
2023-03-31T22:18:13.427Z,75.29
2023-03-31T22:20:40.957Z,75.29
2023-03-31T22:23:07.594Z,75.38
2023-03-31T22:25:34.730Z,74.86
2023-03-31T22:28:03.015Z,74.92
2023-03-31T22:30:30.737Z,75.04
2023-03-31T22:32:57.414Z,75.53
2023-03-31T22:35:24.366Z,76.08
2023-03-31T22:37:51.174Z,75.15
2023-03-31T22:40:17.902Z,75.20
2023-03-31T22:42:44.543Z,75.72
2023-03-31T22:45:11.332Z,75.03
2023-03-31T22:47:38.054Z,75.22
2023-03-31T22:50:05.193Z,74.41
2023-03-31T22:52:31.902Z,74.80
2023-03-31T22:54:58.559Z,74.84
2023-03-31T22:57:25.334Z,74.77
2023-03-31T22:59:52.002Z,73.14
2023-03-31T23:02:18.697Z,73.04
2023-03-31T23:04:45.339Z,74.31
2023-03-31T23:07:11.968Z,73.70
2023-03-31T23:09:38.750Z,73.65
2023-03-31T23:12:05.639Z,74.35
2023-03-31T23:14:32.272Z,75.06
2023-03-31T23:16:59.011Z,74.21
2023-03-31T23:19:26.142Z,75.33
2023-03-31T23:21:52.778Z,75.58
2023-03-31T23:24:21.241Z,75.77
2023-03-31T23:26:47.878Z,77.03
2023-03-31T23:29:14.663Z,76.55
2023-03-31T23:31:41.666Z,76.30
2023-03-31T23:34:08.367Z,76.30
2023-03-31T23:36:35.002Z,76.98
2023-03-31T23:39:01.819Z,76.04
2023-03-31T23:41:28.539Z,75.93
2023-03-31T23:43:57.587Z,76.45
2023-03-31T23:46:26.104Z,76.19
2023-03-31T23:48:53.722Z,76.34
2023-03-31T23:51:20.390Z,76.15
2023-03-31T23:53:47.433Z,76.18
2023-03-31T23:56:14.508Z,76.64
2023-03-31T23:58:43.089Z,77.35
